createdAt,value
2018-11-13T00:00:30.272Z,6.73
2018-11-13T00:02:59.660Z,7.87
2018-11-13T00:05:29.081Z,7.27
2018-11-13T00:07:58.590Z,6.40
2018-11-13T00:10:27.463Z,7.47
2018-11-13T00:12:56.924Z,7.20
2018-11-13T00:15:25.875Z,7.60
2018-11-13T00:17:55.725Z,7.50
2018-11-13T00:20:24.911Z,7.27
2018-11-13T00:22:54.174Z,7.50
2018-11-13T00:25:23.450Z,7.47
2018-11-13T00:27:53.020Z,6.33
2018-11-13T00:30:23.649Z,7.47
2018-11-13T00:32:53.842Z,6.90
2018-11-13T00:35:23.674Z,6.93
2018-11-13T00:37:53.522Z,7.43
2018-11-13T00:40:23.788Z,7.37
2018-11-13T00:42:53.353Z,7.40
2018-11-13T00:45:22.967Z,7.40
2018-11-13T00:47:52.691Z,6.87
2018-11-13T00:50:24.407Z,7.30
2018-11-13T00:52:54.217Z,6.97
2018-11-13T00:55:24.204Z,7.07
2018-11-13T00:57:54.191Z,6.90
2018-11-13T01:00:24.753Z,7.43
2018-11-13T01:02:54.099Z,7.73
2018-11-13T01:05:23.892Z,6.77
2018-11-13T01:07:53.846Z,6.50
2018-11-13T01:10:23.286Z,7.40
2018-11-13T01:12:52.835Z,6.77
2018-11-13T01:15:22.171Z,7.53
2018-11-13T01:17:52.983Z,7.23
2018-11-13T01:20:22.484Z,7.90
2018-11-13T01:22:51.917Z,6.90
2018-11-13T01:25:21.032Z,6.57
2018-11-13T01:27:50.652Z,7.07
2018-11-13T01:30:19.576Z,7.40
2018-11-13T01:32:49.339Z,8.40
2018-11-13T01:35:19.270Z,8.63
2018-11-13T01:37:48.079Z,7.07
2018-11-13T01:40:19.625Z,7.97
2018-11-13T01:42:49.582Z,8.10
2018-11-13T01:45:19.424Z,8.20
2018-11-13T01:47:48.424Z,7.23
2018-11-13T01:50:19.398Z,8.03
2018-11-13T01:52:48.364Z,8.73
2018-11-13T01:55:18.030Z,8.17
2018-11-13T01:57:47.451Z,8.20
2018-11-13T02:00:22.975Z,9.07
2018-11-13T02:02:54.137Z,8.90
2018-11-13T02:08:00.106Z,9.17
2018-11-13T02:10:28.882Z,7.63
2018-11-13T02:12:58.136Z,7.10
2018-11-13T02:15:27.353Z,7.57
2018-11-13T02:17:56.165Z,6.17
2018-11-13T02:20:25.384Z,7.60
2018-11-13T02:22:54.453Z,10.60
2018-11-13T02:25:24.677Z,6.87
2018-11-13T02:27:54.649Z,6.90
2018-11-13T02:30:24.086Z,6.90
2018-11-13T02:32:53.975Z,7.37
2018-11-13T02:35:23.963Z,6.70
2018-11-13T02:37:53.005Z,6.90
2018-11-13T02:40:24.225Z,7.00
2018-11-13T02:42:54.009Z,6.57
2018-11-13T02:45:23.467Z,6.50
2018-11-13T02:47:53.189Z,6.23
2018-11-13T02:50:23.488Z,7.63
2018-11-13T02:52:53.055Z,6.50
2018-11-13T02:55:23.348Z,7.37
2018-11-13T02:57:53.415Z,8.57
2018-11-13T03:00:23.702Z,7.80
2018-11-13T03:02:53.253Z,7.00
2018-11-13T03:05:24.346Z,6.60
2018-11-13T03:07:54.505Z,8.03
2018-11-13T03:10:24.374Z,7.77
2018-11-13T03:12:54.186Z,7.73
2018-11-13T03:15:24.459Z,7.37
2018-11-13T03:17:53.753Z,8.60
2018-11-13T03:20:22.705Z,8.07
2018-11-13T03:22:51.837Z,7.50
2018-11-13T03:25:22.896Z,8.13
2018-11-13T03:27:54.140Z,7.77
2018-11-13T03:30:24.893Z,9.27
2018-11-13T03:32:55.813Z,10.27
2018-11-13T03:35:25.161Z,8.70
2018-11-13T03:37:55.487Z,8.33
2018-11-13T03:40:26.155Z,9.00
2018-11-13T03:42:55.800Z,7.90
2018-11-13T03:45:25.251Z,7.63
2018-11-13T03:47:54.651Z,7.97
2018-11-13T03:50:24.721Z,7.27
2018-11-13T03:52:54.497Z,7.00
2018-11-13T03:55:23.788Z,7.60
2018-11-13T03:57:52.792Z,7.27
2018-11-13T04:00:23.614Z,7.90
2018-11-13T04:02:55.283Z,7.40
2018-11-13T04:05:24.642Z,7.80
2018-11-13T04:07:54.687Z,7.50
2018-11-13T04:10:25.239Z,8.43
2018-11-13T04:12:55.983Z,8.93
2018-11-13T04:15:26.502Z,7.60
2018-11-13T04:17:57.886Z,8.13
2018-11-13T04:20:26.700Z,9.07
2018-11-13T04:22:56.073Z,8.30
2018-11-13T04:25:25.378Z,7.93
2018-11-13T04:27:56.334Z,8.33
2018-11-13T04:30:25.280Z,7.73
2018-11-13T04:32:55.057Z,7.60
2018-11-13T04:35:24.512Z,7.93
2018-11-13T04:37:54.469Z,8.23
2018-11-13T04:40:24.835Z,7.93
2018-11-13T04:42:54.600Z,7.13
2018-11-13T04:45:25.408Z,6.80
2018-11-13T04:47:55.000Z,6.80
2018-11-13T04:50:25.614Z,7.27
2018-11-13T04:52:56.792Z,7.00
2018-11-13T04:55:26.259Z,7.50
2018-11-13T04:57:55.672Z,7.67
2018-11-13T05:00:26.092Z,7.63
2018-11-13T05:02:56.600Z,7.50
2018-11-13T05:05:26.520Z,8.07
2018-11-13T05:07:56.913Z,7.70
2018-11-13T05:10:26.266Z,7.77
2018-11-13T05:12:57.017Z,7.63
2018-11-13T05:15:27.368Z,7.77
2018-11-13T05:17:56.974Z,8.53
2018-11-13T05:20:25.855Z,8.67
2018-11-13T05:25:40.479Z,7.63
2018-11-13T05:28:10.450Z,8.73
2018-11-13T05:30:39.368Z,7.37
2018-11-13T05:33:08.314Z,8.33
2018-11-13T05:35:37.127Z,7.90
2018-11-13T05:38:05.969Z,7.73
2018-11-13T05:40:35.069Z,8.23
2018-11-13T05:43:03.976Z,8.10
2018-11-13T05:45:32.809Z,7.70
2018-11-13T05:48:02.180Z,7.93
2018-11-13T05:50:31.517Z,7.93
2018-11-13T05:53:01.217Z,7.63
2018-11-13T05:55:29.988Z,7.60
2018-11-13T05:57:58.812Z,7.33
2018-11-13T06:00:32.549Z,8.00
2018-11-13T06:03:02.115Z,7.73
2018-11-13T06:05:31.302Z,8.23
2018-11-13T06:08:00.198Z,7.83
2018-11-13T06:10:29.148Z,8.23
2018-11-13T06:12:59.193Z,7.47
2018-11-13T06:15:28.443Z,7.63
2018-11-13T06:17:57.308Z,7.13
2018-11-13T06:20:27.227Z,7.83
2018-11-13T06:22:56.118Z,7.70
2018-11-13T06:25:25.730Z,8.07
2018-11-13T06:27:56.151Z,7.67
2018-11-13T06:30:26.654Z,7.57
2018-11-13T06:32:55.803Z,7.70
2018-11-13T06:35:25.441Z,7.80
2018-11-13T06:37:55.629Z,7.40
2018-11-13T06:40:26.394Z,7.63
2018-11-13T06:42:55.627Z,8.07
2018-11-13T06:45:25.684Z,7.67
2018-11-13T06:47:55.410Z,7.63
2018-11-13T06:51:28.697Z,8.13
2018-11-13T06:54:09.583Z,7.83
2018-11-13T06:56:38.459Z,7.30
2018-11-13T06:59:07.918Z,7.83
2018-11-13T07:01:37.441Z,7.93
2018-11-13T07:04:06.642Z,7.37
2018-11-13T07:06:37.429Z,8.10
2018-11-13T07:09:08.441Z,8.20
2018-11-13T07:11:38.058Z,8.10
2018-11-13T07:14:07.616Z,7.73
2018-11-13T07:16:36.482Z,7.03
2018-11-13T07:19:05.594Z,7.50
2018-11-13T07:21:35.370Z,7.33
2018-11-13T07:24:10.665Z,7.43
2018-11-13T07:26:40.046Z,8.37
2018-11-13T07:29:08.917Z,7.30
2018-11-13T07:31:37.786Z,7.00
2018-11-13T07:34:06.804Z,7.30
2018-11-13T07:36:35.669Z,6.90
2018-11-13T07:39:14.491Z,7.23
2018-11-13T07:41:44.095Z,6.67
2018-11-13T07:44:12.939Z,6.97
2018-11-13T07:46:41.933Z,6.93
2018-11-13T07:49:10.821Z,7.23
2018-11-13T07:51:40.682Z,7.47
2018-11-13T07:54:10.226Z,7.13
2018-11-13T07:57:09.752Z,6.67
2018-11-13T07:59:39.185Z,6.80
2018-11-13T08:05:40.052Z,6.27
2018-11-13T08:08:08.959Z,6.03
2018-11-13T08:10:37.775Z,6.47
2018-11-13T08:13:07.549Z,6.37
2018-11-13T08:15:36.267Z,6.33
2018-11-13T08:18:05.305Z,6.17
2018-11-13T08:20:34.130Z,5.97
2018-11-13T08:23:02.942Z,5.97
2018-11-13T08:25:31.894Z,5.80
2018-11-13T08:28:01.444Z,5.90
2018-11-13T08:30:30.224Z,6.10
2018-11-13T08:33:00.023Z,5.10
2018-11-13T08:35:28.929Z,5.73
2018-11-13T08:37:58.286Z,6.13
2018-11-13T08:40:28.012Z,5.97
2018-11-13T08:42:57.793Z,6.67
2018-11-13T08:45:26.606Z,5.67
2018-11-13T08:47:55.490Z,6.27
2018-11-13T08:50:25.763Z,5.60
2018-11-13T08:52:56.117Z,6.13
2018-11-13T08:55:26.373Z,5.10
2018-11-13T08:57:55.997Z,6.33
2018-11-13T09:00:26.519Z,5.80
2018-11-13T09:02:55.810Z,5.10
2018-11-13T09:05:25.034Z,4.73
2018-11-13T09:07:54.110Z,4.47
2018-11-13T09:10:23.671Z,4.77
2018-11-13T09:12:53.638Z,4.47
2018-11-13T09:15:23.687Z,3.97
2018-11-13T09:17:52.831Z,3.97
2018-11-13T09:20:22.519Z,3.83
2018-11-13T09:22:53.161Z,4.00
2018-11-13T09:25:23.601Z,3.77
2018-11-13T09:27:54.078Z,4.00
2018-11-13T09:30:24.617Z,4.20
2018-11-13T09:32:53.772Z,3.33
2018-11-13T09:35:23.279Z,3.93
2018-11-13T09:37:54.391Z,4.60
2018-11-13T09:40:23.574Z,4.70
2018-11-13T09:42:53.561Z,4.53
2018-11-13T09:45:23.412Z,4.10
2018-11-13T09:47:53.142Z,3.60
2018-11-13T09:50:24.521Z,4.13
2018-11-13T09:52:54.995Z,3.80
2018-11-13T09:55:25.499Z,3.60
2018-11-13T09:57:55.211Z,3.53
2018-11-13T10:00:26.621Z,3.07
2018-11-13T10:02:58.157Z,3.40
2018-11-13T10:05:26.602Z,3.30
2018-11-13T10:07:57.153Z,3.20
2018-11-13T10:10:27.980Z,2.97
2018-11-13T10:12:57.662Z,2.90
2018-11-13T10:15:28.750Z,2.90
2018-11-13T10:17:58.082Z,4.37
2018-11-13T10:20:27.139Z,2.33
2018-11-13T10:22:57.459Z,2.97
2018-11-13T10:25:26.551Z,2.70
2018-11-13T10:27:56.411Z,3.10
2018-11-13T10:30:26.166Z,2.30
2018-11-13T10:32:55.842Z,2.50
2018-11-13T10:35:26.760Z,2.37
2018-11-13T10:37:56.385Z,2.30
2018-11-13T10:40:26.341Z,1.47
2018-11-13T10:42:56.560Z,2.50
2018-11-13T10:45:27.027Z,1.80
2018-11-13T10:47:56.437Z,1.80
2018-11-13T10:50:27.241Z,1.67
2018-11-13T10:52:58.090Z,2.07
2018-11-13T10:55:27.179Z,1.40
2018-11-13T10:57:57.310Z,2.03
2018-11-13T11:00:32.956Z,1.63
2018-11-13T11:03:06.005Z,1.70
2018-11-13T11:05:34.789Z,2.13
2018-11-13T11:08:03.792Z,1.47
2018-11-13T11:10:33.000Z,1.70
2018-11-13T11:13:04.125Z,1.37
2018-11-13T11:15:33.040Z,1.37
2018-11-13T11:18:02.210Z,1.40
2018-11-13T11:20:31.252Z,1.90
2018-11-13T11:23:00.322Z,1.40
2018-11-13T11:25:29.621Z,1.77
2018-11-13T11:27:59.502Z,1.50
2018-11-13T11:30:28.551Z,1.23
2018-11-13T11:32:58.629Z,1.47
2018-11-13T11:35:27.658Z,2.00
2018-11-13T11:37:58.146Z,1.33
2018-11-13T11:40:27.150Z,1.37
2018-11-13T11:42:56.297Z,1.57
2018-11-13T11:45:26.147Z,1.40
2018-11-13T11:47:55.856Z,1.30
2018-11-13T11:50:26.298Z,1.70
2018-11-13T11:52:56.863Z,1.30
2018-11-13T11:55:26.288Z,1.80
2018-11-13T11:57:56.307Z,1.57
2018-11-13T12:00:35.099Z,2.07
2018-11-13T12:03:04.413Z,1.80
2018-11-13T12:05:33.353Z,1.50
2018-11-13T12:08:02.397Z,1.77
2018-11-13T12:10:31.502Z,1.40
2018-11-13T12:13:01.516Z,1.60
2018-11-13T12:15:30.522Z,1.50
2018-11-13T12:17:59.442Z,1.60
2018-11-13T12:20:28.461Z,1.93
2018-11-13T12:22:57.496Z,1.40
2018-11-13T12:25:26.679Z,1.47
2018-11-13T12:27:56.937Z,1.50
2018-11-13T12:30:26.485Z,1.57
2018-11-13T12:32:56.267Z,1.53
2018-11-13T12:35:25.778Z,1.87
2018-11-13T12:37:55.967Z,2.17
2018-11-13T12:40:25.929Z,1.70
2018-11-13T12:42:55.458Z,1.70
2018-11-13T12:45:26.224Z,1.80
2018-11-13T12:47:56.084Z,1.97
2018-11-13T12:50:30.199Z,1.47
2018-11-13T12:53:00.213Z,2.20
2018-11-13T12:55:29.060Z,1.90
2018-11-13T12:57:58.187Z,1.70
2018-11-13T13:00:27.739Z,1.60
2018-11-13T13:02:56.891Z,1.60
2018-11-13T13:05:26.873Z,1.70
2018-11-13T13:07:58.928Z,1.90
2018-11-13T13:10:28.225Z,1.63
2018-11-13T13:12:58.701Z,1.70
2018-11-13T13:15:28.238Z,1.77
2018-11-13T13:17:57.572Z,1.73
2018-11-13T13:20:27.098Z,1.83
2018-11-13T13:22:56.024Z,2.20
2018-11-13T13:25:25.552Z,1.80
2018-11-13T13:27:56.117Z,1.80
2018-11-13T13:30:26.613Z,1.60
2018-11-13T13:32:55.998Z,1.80
2018-11-13T13:35:43.430Z,1.90
2018-11-13T13:38:13.846Z,2.10
2018-11-13T13:40:43.920Z,2.30
2018-11-13T13:43:13.514Z,2.40
2018-11-13T13:45:43.231Z,2.10
2018-11-13T13:48:12.368Z,2.20
2018-11-13T13:50:41.877Z,2.20
2018-11-13T13:53:12.720Z,2.10
2018-11-13T13:55:42.769Z,2.13
2018-11-13T13:58:12.219Z,2.50
2018-11-13T14:00:42.050Z,2.50
2018-11-13T14:03:11.842Z,2.13
2018-11-13T14:05:41.251Z,2.00
2018-11-13T14:08:11.061Z,2.00
2018-11-13T14:10:40.136Z,1.57
2018-11-13T14:13:09.810Z,2.10
2018-11-13T14:15:38.804Z,2.40
2018-11-13T14:18:07.774Z,1.93
2018-11-13T14:20:36.857Z,1.90
2018-11-13T14:23:05.959Z,2.80
2018-11-13T14:25:35.426Z,2.37
2018-11-13T14:32:38.999Z,2.13
2018-11-13T14:35:08.117Z,2.77
2018-11-13T14:37:38.730Z,2.03
2018-11-13T14:40:17.553Z,3.63
2018-11-13T14:42:47.285Z,2.70
2018-11-13T14:45:17.043Z,2.70
2018-11-13T14:47:46.693Z,2.73
2018-11-13T14:50:18.800Z,2.50
2018-11-13T14:52:50.032Z,2.63
2018-11-13T14:55:21.592Z,3.33
2018-11-13T14:57:50.947Z,2.80
2018-11-13T15:00:24.271Z,3.13
2018-11-13T15:02:55.112Z,3.10
2018-11-13T15:05:25.814Z,3.67
2018-11-13T15:07:57.769Z,3.30
2018-11-13T15:10:35.062Z,3.60
2018-11-13T15:13:05.737Z,3.43
2018-11-13T15:15:35.243Z,4.33
2018-11-13T15:18:04.199Z,3.73
2018-11-13T15:20:33.081Z,3.10
2018-11-13T15:23:02.390Z,3.50
2018-11-13T15:25:31.228Z,3.40
2018-11-13T15:28:00.581Z,3.10
2018-11-13T15:30:37.494Z,3.50
2018-11-13T15:33:15.459Z,3.77
2018-11-13T15:35:45.302Z,3.83
2018-11-13T15:38:14.118Z,3.87
2018-11-13T15:40:43.754Z,4.13
2018-11-13T15:43:12.550Z,3.77
2018-11-13T15:45:41.389Z,3.63
2018-11-13T15:48:11.726Z,3.30
2018-11-13T15:50:41.765Z,3.43
2018-11-13T15:53:11.946Z,3.83
2018-11-13T15:55:40.802Z,3.80
2018-11-13T15:58:09.849Z,3.50
2018-11-13T16:00:41.108Z,3.83
2018-11-13T16:03:12.606Z,3.73
2018-11-13T16:05:45.530Z,2.83
2018-11-13T16:08:14.521Z,3.40
2018-11-13T16:10:43.517Z,3.20
2018-11-13T16:13:13.546Z,3.70
2018-11-13T16:15:42.779Z,3.43
2018-11-13T16:18:19.561Z,4.43
2018-11-13T16:20:48.972Z,3.20
2018-11-13T16:23:17.842Z,3.70
2018-11-13T16:25:46.717Z,3.33
2018-11-13T16:28:16.352Z,3.87
2018-11-13T16:30:45.422Z,2.87
2018-11-13T16:33:14.224Z,3.23
2018-11-13T16:35:43.095Z,3.00
2018-11-13T16:38:12.699Z,3.00
2018-11-13T16:40:41.673Z,2.80
2018-11-13T16:43:10.527Z,3.60
2018-11-13T16:45:39.335Z,3.33
2018-11-13T16:48:08.377Z,3.40
2018-11-13T16:50:39.778Z,3.33
2018-11-13T16:53:09.278Z,3.90
2018-11-13T16:55:43.370Z,3.57
2018-11-13T16:58:13.587Z,3.90
2018-11-13T17:00:43.104Z,3.60
2018-11-13T17:03:11.938Z,4.00
2018-11-13T17:05:40.873Z,3.63
2018-11-13T17:08:09.653Z,3.70
2018-11-13T17:10:41.310Z,3.50
2018-11-13T17:13:11.014Z,4.10
2018-11-13T17:15:39.922Z,3.30
2018-11-13T17:18:09.730Z,3.53
2018-11-13T17:20:38.568Z,4.37
2018-11-13T17:23:07.577Z,3.63
2018-11-13T17:25:37.952Z,4.13
2018-11-13T17:28:08.258Z,3.80
2018-11-13T17:30:37.523Z,3.53
2018-11-13T17:33:08.741Z,3.60
2018-11-13T17:35:37.542Z,3.73
2018-11-13T17:38:06.970Z,3.30
2018-11-13T17:40:36.752Z,4.13
2018-11-13T17:43:06.742Z,3.40
2018-11-13T17:45:36.885Z,4.23
2018-11-13T17:48:06.416Z,3.50
2018-11-13T17:50:37.216Z,3.93
2018-11-13T17:53:07.824Z,3.90
2018-11-13T17:55:36.662Z,4.60
2018-11-13T17:58:07.802Z,4.43
2018-11-13T18:00:40.477Z,4.40
2018-11-13T18:03:10.561Z,4.77
2018-11-13T18:05:39.868Z,4.93
2018-11-13T18:08:10.338Z,4.57
2018-11-13T18:10:40.423Z,4.67
2018-11-13T18:13:10.329Z,4.40
2018-11-13T18:15:39.925Z,5.00
2018-11-13T18:18:09.062Z,4.80
2018-11-13T18:20:38.997Z,4.17
2018-11-13T18:23:08.323Z,5.00
2018-11-13T18:25:37.234Z,4.70
2018-11-13T18:28:06.971Z,5.13
2018-11-13T18:30:36.983Z,4.97
2018-11-13T18:33:06.498Z,5.40
2018-11-13T18:35:36.534Z,5.23
2018-11-13T18:38:07.620Z,5.97
2018-11-13T18:40:36.483Z,5.00
2018-11-13T18:43:05.825Z,5.37
2018-11-13T18:45:36.061Z,5.50
2018-11-13T18:48:05.121Z,5.37
2018-11-13T18:50:36.879Z,5.20
2018-11-13T18:53:06.606Z,5.43
2018-11-13T18:55:35.453Z,5.97
2018-11-13T18:58:04.381Z,5.23
2018-11-13T19:00:35.209Z,6.03
2018-11-13T19:03:05.050Z,5.40
2018-11-13T19:05:34.131Z,5.57
2018-11-13T19:08:03.804Z,6.30
2018-11-13T19:10:38.058Z,5.90
2018-11-13T19:13:10.025Z,5.70
2018-11-13T19:15:42.179Z,6.20
2018-11-13T19:18:11.320Z,6.07
2018-11-13T19:20:40.168Z,6.10
2018-11-13T19:23:08.994Z,6.00
2018-11-13T19:25:38.309Z,6.07
2018-11-13T19:28:07.886Z,5.77
2018-11-13T19:30:36.725Z,6.40
2018-11-13T19:33:05.622Z,6.17
2018-11-13T19:35:34.692Z,6.23
2018-11-13T19:38:03.347Z,6.20
2018-11-13T19:40:33.801Z,6.93
2018-11-13T19:43:05.243Z,7.00
2018-11-13T19:45:34.012Z,6.63
2018-11-13T19:48:02.856Z,6.67
2018-11-13T19:50:33.809Z,6.97
2018-11-13T19:53:03.187Z,7.30
2018-11-13T19:55:32.353Z,7.83
2018-11-13T19:58:01.255Z,6.67
2018-11-13T20:00:32.799Z,6.37
2018-11-13T20:03:02.922Z,6.47
2018-11-13T20:05:32.308Z,6.00
2018-11-13T20:08:02.329Z,6.10
2018-11-13T20:10:35.112Z,6.13
2018-11-13T20:13:05.905Z,6.30
2018-11-13T20:15:35.778Z,6.70
2018-11-13T20:18:05.054Z,5.80
2018-11-13T20:20:34.182Z,5.97
2018-11-13T20:23:04.326Z,6.20
2018-11-13T20:25:33.978Z,7.33
2018-11-13T20:28:03.387Z,6.13
2018-11-13T20:30:36.848Z,5.60
2018-11-13T20:33:05.829Z,6.73
2018-11-13T20:35:41.036Z,6.67
2018-11-13T20:38:09.903Z,6.03
2018-11-13T20:40:39.599Z,6.00
2018-11-13T20:43:10.290Z,6.70
2018-11-13T20:45:39.112Z,6.53
2018-11-13T20:48:07.964Z,6.53
2018-11-13T20:50:38.577Z,6.77
2018-11-13T20:53:08.299Z,6.03
2018-11-13T20:55:37.446Z,6.00
2018-11-13T20:58:07.488Z,6.93
2018-11-13T21:00:37.438Z,6.27
2018-11-13T21:03:06.922Z,6.63
2018-11-13T21:05:35.745Z,6.03
2018-11-13T21:08:05.410Z,6.03
2018-11-13T21:10:36.660Z,5.73
2018-11-13T21:13:06.529Z,6.50
2018-11-13T21:15:36.022Z,6.27
2018-11-13T21:18:04.982Z,6.30
2018-11-13T21:20:33.835Z,6.20
2018-11-13T21:23:08.436Z,6.97
2018-11-13T21:25:37.369Z,5.97
2018-11-13T21:28:06.739Z,6.63
2018-11-13T21:30:36.216Z,6.57
2018-11-13T21:33:05.406Z,6.30
2018-11-13T21:35:34.760Z,5.97
2018-11-13T21:38:10.159Z,6.77
2018-11-13T21:40:38.992Z,6.80
2018-11-13T21:43:07.801Z,6.87
2018-11-13T21:45:36.771Z,6.87
2018-11-13T21:48:05.679Z,6.73
2018-11-13T21:50:35.342Z,6.43
2018-11-13T21:53:05.294Z,6.90
2018-11-13T21:55:34.310Z,6.93
2018-11-13T21:58:05.296Z,7.17
2018-11-13T22:00:35.045Z,7.67
2018-11-13T22:03:05.291Z,6.83
2018-11-13T22:05:35.331Z,7.53
2018-11-13T22:08:05.227Z,7.90
2018-11-13T22:10:34.597Z,7.33
2018-11-13T22:13:04.068Z,7.57
2018-11-13T22:15:33.712Z,6.63
2018-11-13T22:18:02.952Z,7.53
2018-11-13T22:20:31.373Z,7.57
2018-11-13T22:23:00.901Z,7.10
2018-11-13T22:25:29.708Z,6.53
2018-11-13T22:28:00.274Z,7.37
2018-11-13T22:30:30.316Z,7.33
2018-11-13T22:33:01.234Z,6.37
2018-11-13T22:35:30.054Z,6.73
2018-11-13T22:37:59.988Z,6.93
2018-11-13T22:40:29.537Z,7.23
2018-11-13T22:43:00.050Z,6.90
2018-11-13T22:45:29.753Z,6.57
2018-11-13T22:48:00.787Z,7.63
2018-11-13T22:50:32.682Z,7.70
2018-11-13T22:53:02.175Z,7.27
2018-11-13T22:55:31.113Z,7.63
2018-11-13T22:58:01.734Z,7.80
2018-11-13T23:00:43.406Z,8.40
2018-11-13T23:03:18.988Z,7.07
2018-11-13T23:05:48.737Z,7.17
2018-11-13T23:08:20.097Z,8.00
2018-11-13T23:10:51.129Z,7.13
2018-11-13T23:13:22.499Z,7.17
2018-11-13T23:15:53.918Z,7.53
2018-11-13T23:18:24.003Z,7.47
2018-11-13T23:20:52.993Z,7.17
2018-11-13T23:23:24.510Z,7.17
2018-11-13T23:25:54.466Z,7.93
2018-11-13T23:28:29.090Z,7.83
2018-11-13T23:30:58.742Z,7.00
2018-11-13T23:33:27.584Z,7.60
2018-11-13T23:35:58.034Z,6.90
2018-11-13T23:38:26.895Z,6.60
2018-11-13T23:40:55.768Z,7.10
2018-11-13T23:43:28.117Z,7.27
2018-11-13T23:45:57.260Z,6.60
2018-11-13T23:48:26.667Z,7.17
2018-11-13T23:50:56.120Z,6.83
2018-11-13T23:53:26.085Z,6.77
2018-11-13T23:55:55.806Z,6.60
2018-11-13T23:58:25.601Z,6.47
